Time;durP1;ratioP1;P1;durP2;ratioP2;P2;SDS_P1;SDS_P2;PMS_P1;PMS_P2;Temp;Humidity;BMP_temperature;BMP_pressure;BME280_temperature;BME280_humidity;BME280_pressure;Samples;Min_cycle;Max_cycle;Signal;HPM_P1;HPM_P2
2021/12/11 00:00:18;;;;;;;22.07;10.83;;;;;3.20;94762.00;;;;8365261;28;20680;-79
2021/12/11 00:04:29;;;;;;;22.57;10.87;;;;;3.20;94763.00;;;;8351720;28;20265;-79
2021/12/11 00:08:33;;;;;;;16.27;9.47;;;;;3.30;94776.00;;;;8350100;28;20251;-79
2021/12/11 00:12:45;;;;;;;15.13;8.13;;;;;3.30;94787.00;;;;8352637;28;20264;-81
2021/12/11 00:16:51;;;;;;;13.97;8.50;;;;;3.30;94782.00;;;;8368984;28;20305;-83
2021/12/11 00:20:58;;;;;;;15.77;8.67;;;;;3.30;94789.00;;;;8383061;28;20608;-84
2021/12/11 00:25:08;;;;;;;11.73;7.70;;;;;3.30;94793.00;;;;8384619;28;20694;-87
2021/12/11 00:29:14;;;;;;;11.40;7.03;;;;;3.30;94794.00;;;;8383251;28;20270;-84
2021/12/11 00:33:23;;;;;;;8.47;6.00;;;;;3.30;94803.00;;;;8384824;28;20266;-81
2021/12/11 00:37:27;;;;;;;7.60;5.20;;;;;3.30;94813.00;;;;8376761;28;20249;-80
2021/12/11 00:41:33;;;;;;;9.03;5.73;;;;;3.40;94820.00;;;;8384178;28;20976;-78
2021/12/11 00:45:40;;;;;;;10.50;5.00;;;;;3.40;94827.00;;;;8391730;28;20297;-78
2021/12/11 00:49:54;;;;;;;8.00;5.07;;;;;3.40;94833.00;;;;8418236;28;20311;-78
2021/12/11 00:53:59;;;;;;;5.43;4.63;;;;;3.40;94838.00;;;;8417121;28;20258;-78
2021/12/11 00:58:07;;;;;;;5.10;4.20;;;;;3.40;94852.00;;;;8405598;28;20238;-79
2021/12/11 01:02:10;;;;;;;6.43;4.73;;;;;3.40;94850.00;;;;8390959;28;20266;-79
2021/12/11 01:06:17;;;;;;;5.83;4.30;;;;;3.40;94861.00;;;;8368336;28;20563;-80
2021/12/11 01:10:25;;;;;;;7.17;4.70;;;;;3.40;94872.00;;;;8342933;28;20593;-82
2021/12/11 01:14:36;;;;;;;6.53;3.50;;;;;3.50;94875.00;;;;8341223;28;20224;-83
2021/12/11 01:18:43;;;;;;;6.57;4.53;;;;;3.50;94885.00;;;;8356349;28;20230;-82
2021/12/11 01:22:49;;;;;;;5.63;4.20;;;;;3.50;94898.00;;;;8384316;28;20230;-80
2021/12/11 01:26:52;;;;;;;4.17;3.77;;;;;3.50;94905.00;;;;8384883;28;20652;-80
2021/12/11 01:30:56;;;;;;;6.23;4.00;;;;;3.50;94902.00;;;;8384366;28;20952;-78
2021/12/11 01:35:03;;;;;;;5.33;3.97;;;;;3.50;94915.00;;;;8365357;28;20280;-79
2021/12/11 01:39:11;;;;;;;6.43;4.27;;;;;3.50;94914.00;;;;8338231;28;20249;-76
2021/12/11 01:43:14;;;;;;;5.07;3.63;;;;;3.50;94918.00;;;;8368669;28;20227;-76
2021/12/11 01:47:20;;;;;;;4.20;3.80;;;;;3.50;94919.00;;;;8384500;28;20311;-78
2021/12/11 01:51:30;;;;;;;5.40;4.00;;;;;3.50;94918.00;;;;8383041;28;20633;-78
2021/12/11 01:55:39;;;;;;;4.20;3.80;;;;;3.50;94923.00;;;;8383589;28;20318;-77
2021/12/11 01:59:54;;;;;;;7.97;3.97;;;;;3.50;94928.00;;;;8383708;28;20255;-77
2021/12/11 02:03:58;;;;;;;4.33;3.47;;;;;3.50;94932.00;;;;8378145;28;20641;-75
2021/12/11 02:08:06;;;;;;;4.13;3.67;;;;;3.50;94941.00;;;;8335843;28;20236;-76
2021/12/11 02:12:22;;;;;;;5.30;4.00;;;;;3.50;94957.00;;;;8349885;28;20233;-74
2021/12/11 02:16:32;;;;;;;4.67;3.60;;;;;3.50;94949.00;;;;8363775;28;20262;-75
2021/12/11 02:20:41;;;;;;;6.23;3.60;;;;;3.50;94969.00;;;;8364672;28;20234;-74
2021/12/11 02:24:48;;;;;;;5.60;4.00;;;;;3.50;94975.00;;;;8361706;28;20258;-74
2021/12/11 02:28:55;;;;;;;4.43;3.77;;;;;3.50;94972.00;;;;8374476;28;20321;-74
2021/12/11 02:33:07;;;;;;;6.40;3.77;;;;;3.50;94979.00;;;;8382626;28;20282;-74
2021/12/11 02:37:17;;;;;;;4.30;3.17;;;;;3.60;94983.00;;;;8381994;28;20256;-74
2021/12/11 02:41:26;;;;;;;6.23;4.60;;;;;3.60;94980.00;;;;8382584;28;20758;-74
2021/12/11 02:45:37;;;;;;;4.90;4.07;;;;;3.60;94989.00;;;;8383200;28;20655;-73
2021/12/11 02:49:44;;;;;;;5.20;4.00;;;;;3.60;94997.00;;;;8384239;28;20249;-75
2021/12/11 02:53:51;;;;;;;3.37;2.83;;;;;3.60;95007.00;;;;8389244;28;20243;-74
2021/12/11 02:57:59;;;;;;;5.17;4.03;;;;;3.60;95010.00;;;;8381332;28;21874;-73
2021/12/11 03:02:09;;;;;;;4.63;3.90;;;;;3.60;95009.00;;;;8382986;22;20233;-74
2021/12/11 03:06:18;;;;;;;3.57;3.27;;;;;3.60;95020.00;;;;8367921;28;20236;-75
2021/12/11 03:10:26;;;;;;;6.40;3.43;;;;;3.70;95023.00;;;;8372183;28;20223;-75
2021/12/11 03:14:31;;;;;;;6.37;3.10;;;;;3.70;95025.00;;;;8370869;28;20267;-75
2021/12/11 03:18:34;;;;;;;5.50;3.20;;;;;3.70;95030.00;;;;8370777;28;20272;-75
2021/12/11 03:22:37;;;;;;;4.07;3.60;;;;;3.70;95047.00;;;;8382208;28;20872;-74
2021/12/11 03:26:43;;;;;;;10.70;3.90;;;;;3.70;95051.00;;;;8380726;28;22613;-76
2021/12/11 03:30:56;;;;;;;4.40;3.27;;;;;3.70;95061.00;;;;8381060;28;20251;-76
2021/12/11 03:35:00;;;;;;;3.70;3.40;;;;;3.70;95069.00;;;;8385691;28;20254;-76
2021/12/11 03:39:07;;;;;;;4.73;3.73;;;;;3.60;95079.00;;;;8356336;28;20260;-78
2021/12/11 03:43:15;;;;;;;6.80;3.70;;;;;3.60;95085.00;;;;8366076;28;20621;-76
2021/12/11 03:47:26;;;;;;;3.60;3.27;;;;;3.60;95089.00;;;;8359650;28;20248;-76
2021/12/11 03:51:32;;;;;;;7.57;3.23;;;;;3.60;95100.00;;;;8378652;28;20273;-75
2021/12/11 03:55:40;;;;;;;4.10;3.60;;;;;3.60;95106.00;;;;8386803;28;20348;-75
2021/12/11 03:59:44;;;;;;;6.00;3.10;;;;;3.60;95098.00;;;;8386389;28;21006;-75
2021/12/11 04:03:51;;;;;;;5.50;3.13;;;;;3.60;95108.00;;;;8379470;28;20585;-75
2021/12/11 04:07:56;;;;;;;4.50;3.30;;;;;3.60;95123.00;;;;8384386;28;20242;-75
2021/12/11 04:12:01;;;;;;;3.83;3.23;;;;;3.60;95131.00;;;;8387041;28;20248;-76
2021/12/11 04:16:07;;;;;;;4.63;3.50;;;;;3.60;95128.00;;;;8387988;28;20588;-75
2021/12/11 04:20:15;;;;;;;4.63;3.03;;;;;3.60;95138.00;;;;8419876;28;20224;-75
2021/12/11 04:24:23;;;;;;;2.90;2.70;;;;;3.60;95143.00;;;;8396413;28;20227;-75
2021/12/11 04:28:30;;;;;;;4.13;2.97;;;;;3.60;95137.00;;;;8390576;28;20313;-75
2021/12/11 04:32:34;;;;;;;2.80;2.50;;;;;3.60;95149.00;;;;8386451;28;20645;-75
2021/12/11 04:36:42;;;;;;;3.30;3.00;;;;;3.60;95159.00;;;;8385408;28;20227;-77
2021/12/11 04:40:49;;;;;;;2.73;2.50;;;;;3.50;95167.00;;;;8385375;28;20316;-77
2021/12/11 04:44:52;;;;;;;3.50;2.70;;;;;3.50;95169.00;;;;8383728;28;20233;-77
2021/12/11 04:49:03;;;;;;;3.13;2.83;;;;;3.50;95175.00;;;;8385058;28;20241;-78
2021/12/11 04:53:23;;;;;;;3.80;2.90;;;;;3.50;95183.00;;;;8385295;28;20587;-76
2021/12/11 05:01:57;;;;;;;3.90;3.10;;;;;3.50;95186.00;;;;8384588;28;20254;-76
2021/12/11 05:06:22;;;;;;;3.20;2.87;;;;;3.60;95202.00;;;;8391051;28;20239;-77
2021/12/11 05:10:36;;;;;;;6.43;3.20;;;;;3.60;95213.00;;;;8384059;28;20281;-76
2021/12/11 05:14:40;;;;;;;4.73;3.63;;;;;3.60;95212.00;;;;8388947;28;20245;-76
2021/12/11 05:18:45;;;;;;;4.57;3.40;;;;;3.60;95217.00;;;;8404924;28;20258;-76
2021/12/11 05:22:48;;;;;;;5.13;3.40;;;;;3.60;95223.00;;;;8418321;28;20271;-75
2021/12/11 05:26:53;;;;;;;3.70;3.30;;;;;3.60;95228.00;;;;8417193;28;20673;-74
2021/12/11 05:31:00;;;;;;;3.50;3.17;;;;;3.60;95239.00;;;;8416901;28;20261;-75
2021/12/11 05:35:05;;;;;;;4.40;3.67;;;;;3.60;95240.00;;;;8417685;28;20221;-75
2021/12/11 05:39:11;;;;;;;4.33;3.10;;;;;3.60;95247.00;;;;8417755;28;20243;-76
2021/12/11 05:43:17;;;;;;;4.23;3.83;;;;;3.60;95250.00;;;;8416343;28;20587;-76
2021/12/11 05:47:20;;;;;;;4.40;3.23;;;;;3.50;95262.00;;;;8416867;28;20321;-78
2021/12/11 05:51:25;;;;;;;3.63;3.33;;;;;3.50;95263.00;;;;8414885;28;20771;-80
2021/12/11 05:55:30;;;;;;;3.97;3.60;;;;;3.50;95276.00;;;;8414099;28;20300;-78
2021/12/11 05:59:37;;;;;;;3.97;3.30;;;;;3.50;95284.00;;;;8390168;28;20798;-80
2021/12/11 06:03:41;;;;;;;4.57;3.30;;;;;3.40;95299.00;;;;8406421;28;20692;-78
2021/12/11 06:07:44;;;;;;;4.53;3.57;;;;;3.40;95309.00;;;;8415075;28;20247;-79
2021/12/11 06:11:51;;;;;;;4.83;3.40;;;;;3.40;95321.00;;;;8413280;28;20257;-78
2021/12/11 06:15:56;;;;;;;7.47;3.33;;;;;3.40;95323.00;;;;8380379;28;20256;-78
2021/12/11 06:20:01;;;;;;;3.77;3.00;;;;;3.30;95335.00;;;;8381093;28;20309;-78
2021/12/11 06:24:05;;;;;;;4.90;3.60;;;;;3.30;95352.00;;;;8381118;28;20316;-82
2021/12/11 06:28:09;;;;;;;2.97;2.60;;;;;3.30;95358.00;;;;8381817;28;20229;-76
2021/12/11 06:32:14;;;;;;;2.57;2.37;;;;;3.30;95367.00;;;;8380291;28;20343;-79
2021/12/11 06:36:19;;;;;;;3.33;2.70;;;;;3.20;95377.00;;;;8387373;28;20250;-76
2021/12/11 06:40:24;;;;;;;5.97;3.03;;;;;3.20;95397.00;;;;8380524;28;20676;-77
2021/12/11 06:44:28;;;;;;;2.83;2.50;;;;;3.20;95402.00;;;;8386572;28;20225;-77
2021/12/11 06:48:33;;;;;;;5.10;2.90;;;;;3.20;95397.00;;;;8391537;28;20269;-76
2021/12/11 06:52:37;;;;;;;5.67;3.27;;;;;3.20;95412.00;;;;8381550;28;20958;-77
2021/12/11 06:56:42;;;;;;;5.53;3.40;;;;;3.20;95420.00;;;;8381604;28;20794;-76
2021/12/11 07:00:45;;;;;;;4.37;3.10;;;;;3.30;95426.00;;;;8381171;28;20285;-77
2021/12/11 07:04:54;;;;;;;4.97;3.33;;;;;3.30;95432.00;;;;8380265;28;20229;-76
2021/12/11 07:08:58;;;;;;;6.03;3.03;;;;;3.30;95449.00;;;;8386268;28;20230;-75
2021/12/11 07:13:01;;;;;;;4.27;3.07;;;;;3.30;95459.00;;;;8387463;28;20233;-75
2021/12/11 07:17:05;;;;;;;4.73;3.67;;;;;3.30;95460.00;;;;8361436;28;20270;-75
2021/12/11 07:21:10;;;;;;;6.10;3.77;;;;;3.30;95473.00;;;;8387398;28;20695;-76
2021/12/11 07:25:18;;;;;;;9.53;5.10;;;;;3.30;95479.00;;;;8385461;28;20317;-75
2021/12/11 07:29:25;;;;;;;6.57;3.97;;;;;3.20;95488.00;;;;8356500;28;20244;-76
2021/12/11 07:33:30;;;;;;;7.10;4.13;;;;;3.30;95503.00;;;;8362816;28;20561;-75
2021/12/11 07:37:38;;;;;;;4.83;3.77;;;;;3.30;95506.00;;;;8384036;28;20807;-75
2021/12/11 07:41:43;;;;;;;4.60;3.30;;;;;3.20;95508.00;;;;8390454;28;20717;-75
2021/12/11 07:45:53;;;;;;;7.43;3.67;;;;;3.20;95521.00;;;;8386608;28;20653;-75
2021/12/11 07:50:00;;;;;;;6.43;3.57;;;;;3.20;95536.00;;;;8394759;28;20230;-75
2021/12/11 07:54:07;;;;;;;5.50;3.33;;;;;3.20;95547.00;;;;8390829;28;20223;-75
2021/12/11 07:58:11;;;;;;;6.47;3.90;;;;;3.30;95560.00;;;;8396978;28;20311;-74
2021/12/11 08:02:14;;;;;;;4.80;3.67;;;;;3.30;95566.00;;;;8418116;28;20265;-77
2021/12/11 08:06:17;;;;;;;5.07;3.53;;;;;3.30;95576.00;;;;8398599;28;20218;-78
2021/12/11 08:10:24;;;;;;;6.63;4.20;;;;;3.30;95582.00;;;;8397127;28;20375;-77
2021/12/11 08:14:28;;;;;;;6.00;3.67;;;;;3.30;95597.00;;;;8385064;28;20232;-77
2021/12/11 08:18:31;;;;;;;7.30;4.40;;;;;3.30;95610.00;;;;8383735;28;20265;-76
2021/12/11 08:22:35;;;;;;;8.43;4.23;;;;;3.30;95615.00;;;;8383442;28;20264;-77
2021/12/11 08:26:41;;;;;;;6.90;4.30;;;;;3.30;95624.00;;;;8384062;28;20225;-78
2021/12/11 08:30:47;;;;;;;6.17;3.93;;;;;3.20;95636.00;;;;8383453;28;20237;-77
2021/12/11 08:34:51;;;;;;;12.10;4.53;;;;;3.20;95646.00;;;;8375509;28;20536;-78
2021/12/11 08:38:56;;;;;;;8.03;4.47;;;;;3.10;95657.00;;;;8383895;28;20251;-77
2021/12/11 08:43:02;;;;;;;6.40;4.57;;;;;3.10;95665.00;;;;8383190;28;20224;-79
2021/12/11 08:47:09;;;;;;;6.90;4.20;;;;;3.10;95677.00;;;;8369829;28;20628;-76
2021/12/11 08:51:16;;;;;;;10.57;5.03;;;;;3.10;95683.00;;;;8349095;28;20226;-76
2021/12/11 08:55:23;;;;;;;8.87;5.23;;;;;3.10;95685.00;;;;8348419;28;20233;-77
2021/12/11 08:59:29;;;;;;;11.33;5.63;;;;;3.20;95699.00;;;;8381745;28;20266;-75
2021/12/11 09:03:38;;;;;;;14.37;5.70;;;;;3.20;95705.00;;;;8381101;28;20230;-76
2021/12/11 09:07:47;;;;;;;13.80;5.33;;;;;3.30;95709.00;;;;8381048;28;20261;-77
2021/12/11 09:11:54;;;;;;;9.80;5.00;;;;;3.30;95722.00;;;;8380082;28;20656;-76
2021/12/11 09:16:03;;;;;;;8.90;4.57;;;;;3.40;95730.00;;;;8377075;28;20333;-76
2021/12/11 09:20:11;;;;;;;11.13;5.27;;;;;3.40;95728.00;;;;8399095;28;20233;-76
2021/12/11 09:24:24;;;;;;;11.50;5.40;;;;;3.40;95740.00;;;;8404124;28;20316;-74
2021/12/11 09:28:31;;;;;;;10.83;4.83;;;;;3.40;95750.00;;;;8382294;28;20699;-75
2021/12/11 09:32:41;;;;;;;12.70;4.60;;;;;3.40;95751.00;;;;8353418;28;20273;-74
2021/12/11 09:36:51;;;;;;;13.17;5.50;;;;;3.50;95769.00;;;;8364324;28;20331;-73
2021/12/11 09:40:57;;;;;;;10.90;5.47;;;;;3.50;95775.00;;;;8359051;28;20616;-74
2021/12/11 09:45:07;;;;;;;11.30;5.00;;;;;3.60;95775.00;;;;8389129;28;20270;-74
2021/12/11 09:49:13;;;;;;;12.33;5.07;;;;;3.60;95792.00;;;;8395695;28;20553;-74
2021/12/11 09:53:20;;;;;;;8.60;3.63;;;;;3.70;95807.00;;;;8390317;28;20576;-74
2021/12/11 09:57:27;;;;;;;10.17;4.80;;;;;3.80;95809.00;;;;8383344;28;20240;-74
2021/12/11 10:01:34;;;;;;;10.97;5.17;;;;;3.80;95810.00;;;;8382770;28;20317;-73
2021/12/11 10:05:44;;;;;;;7.83;4.83;;;;;3.80;95818.00;;;;8392884;28;20268;-73
2021/12/11 10:09:52;;;;;;;13.57;5.73;;;;;3.80;95818.00;;;;8386791;28;20222;-73
2021/12/11 10:13:59;;;;;;;12.13;5.33;;;;;3.80;95822.00;;;;8392573;28;20283;-73
2021/12/11 10:18:06;;;;;;;17.40;6.30;;;;;3.70;95831.00;;;;8415486;28;20618;-73
2021/12/11 10:22:20;;;;;;;16.73;6.07;;;;;3.70;95833.00;;;;8384277;28;20779;-73
2021/12/11 10:26:29;;;;;;;12.97;6.20;;;;;3.80;95832.00;;;;8382535;28;20253;-73
2021/12/11 10:30:35;;;;;;;19.50;7.27;;;;;3.80;95842.00;;;;8381231;28;20232;-73
2021/12/11 10:34:43;;;;;;;20.07;9.40;;;;;3.80;95847.00;;;;8380915;28;20227;-73
2021/12/11 10:38:47;;;;;;;23.83;8.03;;;;;3.90;95861.00;;;;8381924;28;20227;-73
2021/12/11 10:43:01;;;;;;;23.13;7.37;;;;;3.90;95862.00;;;;8381371;28;20315;-73
2021/12/11 10:47:09;;;;;;;17.57;7.43;;;;;3.90;95865.00;;;;8388983;28;20689;-74
2021/12/11 10:51:19;;;;;;;26.80;7.10;;;;;3.80;95866.00;;;;8388468;28;20234;-74
2021/12/11 10:55:28;;;;;;;15.33;7.20;;;;;3.80;95877.00;;;;8392757;28;20222;-73
2021/12/11 10:59:33;;;;;;;20.57;7.27;;;;;3.80;95886.00;;;;8449295;28;20259;-73
2021/12/11 11:03:41;;;;;;;18.30;6.73;;;;;3.80;95891.00;;;;8423552;28;20316;-74
2021/12/11 11:07:48;;;;;;;22.60;6.83;;;;;3.80;95893.00;;;;8392453;28;20318;-73
2021/12/11 11:11:58;;;;;;;18.80;7.27;;;;;3.80;95908.00;;;;8405282;28;20271;-73
2021/12/11 11:16:01;;;;;;;31.70;8.30;;;;;3.80;95919.00;;;;8394709;28;20290;-73
2021/12/11 11:20:08;;;;;;;33.13;8.60;;;;;3.80;95921.00;;;;8396714;28;20269;-73
2021/12/11 11:24:14;;;;;;;28.33;8.67;;;;;3.90;95941.00;;;;8392171;28;20253;-73
2021/12/11 11:28:23;;;;;;;26.97;8.57;;;;;3.80;95950.00;;;;8386286;28;20268;-73
2021/12/11 11:32:32;;;;;;;26.20;8.43;;;;;3.70;95949.00;;;;8397986;28;20258;-73
2021/12/11 11:36:36;;;;;;;31.67;8.87;;;;;3.60;95957.00;;;;8402159;28;20323;-73
2021/12/11 11:40:44;;;;;;;33.37;9.80;;;;;3.60;95973.00;;;;8429996;28;20224;-73
2021/12/11 11:44:49;;;;;;;34.27;9.43;;;;;3.60;95991.00;;;;8409917;28;20251;-73
2021/12/11 11:48:56;;;;;;;27.17;8.40;;;;;3.70;95994.00;;;;8386192;28;20333;-75
2021/12/11 11:52:59;;;;;;;28.90;8.10;;;;;3.70;95994.00;;;;8394345;28;20349;-74
2021/12/11 11:57:08;;;;;;;30.83;8.83;;;;;3.60;96005.00;;;;8400943;28;20275;-73
2021/12/11 12:01:15;;;;;;;50.37;17.00;;;;;3.50;96011.00;;;;8382976;28;20270;-73
2021/12/11 12:05:20;;;;;;;45.57;14.30;;;;;3.60;96010.00;;;;8383596;28;20255;-73
2021/12/11 12:09:24;;;;;;;28.40;9.77;;;;;3.60;96016.00;;;;8382797;28;20254;-73
2021/12/11 12:13:29;;;;;;;88.80;27.33;;;;;3.60;96029.00;;;;8383736;28;20370;-74
2021/12/11 12:17:41;;;;;;;39.90;10.97;;;;;3.60;96033.00;;;;8373757;28;20233;-72
2021/12/11 12:21:47;;;;;;;36.77;11.13;;;;;3.60;96038.00;;;;8392165;28;20313;-72
2021/12/11 12:25:53;;;;;;;91.33;29.80;;;;;3.50;96045.00;;;;8384711;28;20267;-72
2021/12/11 12:29:59;;;;;;;47.13;13.80;;;;;3.60;96049.00;;;;8383833;28;20271;-70
2021/12/11 12:34:03;;;;;;;392.27;134.37;;;;;3.50;96038.00;;;;8382021;28;20266;-71
2021/12/11 12:38:10;;;;;;;30.40;10.13;;;;;3.50;96064.00;;;;8392128;28;20303;-71
2021/12/11 12:42:22;;;;;;;526.63;151.20;;;;;3.50;96062.00;;;;8380320;28;20308;-71
2021/12/11 12:46:37;;;;;;;37.20;13.20;;;;;3.50;96071.00;;;;8387769;28;20218;-72
2021/12/11 12:50:44;;;;;;;1999.90;626.87;;;;;3.60;96075.00;;;;8376890;28;20342;-72
2021/12/11 12:54:49;;;;;;;59.63;18.70;;;;;3.80;96082.00;;;;8396626;28;20228;-72
2021/12/11 12:58:56;;;;;;;85.37;20.67;;;;;3.70;96090.00;;;;8381855;28;20243;-72
2021/12/11 13:03:06;;;;;;;337.20;108.40;;;;;3.70;96093.00;;;;8379755;28;20240;-71
2021/12/11 13:07:12;;;;;;;159.43;83.80;;;;;3.80;96093.00;;;;8379741;28;20232;-71
2021/12/11 13:11:21;;;;;;;30.10;11.60;;;;;3.90;96106.00;;;;8380939;28;20238;-71
2021/12/11 13:15:30;;;;;;;29.33;11.83;;;;;4.00;96121.00;;;;8382139;28;20677;-71
2021/12/11 13:19:39;;;;;;;36.03;10.43;;;;;4.10;96128.00;;;;8387575;28;20240;-73
2021/12/11 13:23:46;;;;;;;28.03;10.50;;;;;4.20;96144.00;;;;8381473;28;20328;-72
2021/12/11 13:27:54;;;;;;;24.43;10.10;;;;;4.20;96151.00;;;;8381226;28;20322;-73
2021/12/11 13:32:01;;;;;;;23.80;9.43;;;;;4.30;96156.00;;;;8381460;28;20236;-71
2021/12/11 13:36:07;;;;;;;26.37;10.37;;;;;4.30;96171.00;;;;8367493;28;20365;-71
2021/12/11 13:40:14;;;;;;;27.27;11.07;;;;;4.20;96175.00;;;;8376640;28;20364;-71
2021/12/11 13:44:21;;;;;;;29.80;10.73;;;;;4.20;96186.00;;;;8382061;28;20229;-72
2021/12/11 13:48:25;;;;;;;19.43;8.77;;;;;4.10;96183.00;;;;8403608;28;20303;-71
2021/12/11 13:52:30;;;;;;;25.80;10.17;;;;;4.10;96186.00;;;;8387842;28;20326;-71
2021/12/11 13:56:40;;;;;;;45.53;15.13;;;;;4.00;96198.00;;;;8425346;28;20625;-70
2021/12/11 14:00:47;;;;;;;21.23;10.00;;;;;4.00;96210.00;;;;8380927;28;20740;-69
2021/12/11 14:04:51;;;;;;;28.57;11.40;;;;;4.00;96218.00;;;;8386455;28;20679;-69
2021/12/11 14:09:05;;;;;;;26.73;9.87;;;;;4.00;96229.00;;;;8368590;28;20279;-68
2021/12/11 14:13:11;;;;;;;30.33;10.27;;;;;4.00;96231.00;;;;8385630;28;20333;-69
2021/12/11 14:17:14;;;;;;;32.90;10.67;;;;;3.90;96230.00;;;;8387718;28;20231;-69
2021/12/11 14:21:18;;;;;;;35.50;11.00;;;;;3.80;96240.00;;;;8384580;28;20317;-69
2021/12/11 14:25:23;;;;;;;39.57;9.33;;;;;3.80;96252.00;;;;8378900;28;20589;-69
2021/12/11 14:29:27;;;;;;;37.87;11.93;;;;;3.70;96258.00;;;;8413323;28;20687;-69
2021/12/11 14:33:32;;;;;;;43.10;13.17;;;;;3.60;96267.00;;;;8394925;28;20244;-69
2021/12/11 14:37:35;;;;;;;48.80;14.37;;;;;3.60;96273.00;;;;8381536;28;20221;-69
2021/12/11 14:41:42;;;;;;;35.13;12.67;;;;;3.60;96278.00;;;;8380619;28;20265;-69
2021/12/11 14:45:46;;;;;;;35.50;12.50;;;;;3.60;96281.00;;;;8381770;28;20236;-70
2021/12/11 14:49:52;;;;;;;35.40;14.20;;;;;3.60;96285.00;;;;8381917;28;20228;-70
2021/12/11 14:53:58;;;;;;;56.50;26.77;;;;;3.60;96293.00;;;;8354517;28;20250;-69
2021/12/11 14:58:03;;;;;;;40.70;15.00;;;;;3.60;96301.00;;;;8379828;28;20225;-69
2021/12/11 15:02:09;;;;;;;52.60;16.00;;;;;3.60;96309.00;;;;8379020;28;20230;-69
2021/12/11 15:06:13;;;;;;;33.30;11.00;;;;;3.50;96310.00;;;;8384710;28;20757;-69
2021/12/11 15:10:26;;;;;;;32.63;10.87;;;;;3.50;96313.00;;;;8377848;28;20232;-69
2021/12/11 15:14:51;;;;;;;38.83;12.97;;;;;3.40;96323.00;;;;8385008;28;20673;-69
2021/12/11 15:18:56;;;;;;;43.53;13.40;;;;;3.40;96331.00;;;;8401376;28;20978;-70
2021/12/11 15:23:01;;;;;;;37.30;13.20;;;;;3.40;96329.00;;;;8381660;28;20253;-68
2021/12/11 15:27:07;;;;;;;48.97;14.37;;;;;3.40;96343.00;;;;8377595;28;20235;-68
2021/12/11 15:31:15;;;;;;;39.10;13.70;;;;;3.50;96366.00;;;;8371902;28;20321;-69
2021/12/11 15:35:22;;;;;;;35.87;12.00;;;;;3.50;96361.00;;;;8382557;28;20239;-70
2021/12/11 15:39:30;;;;;;;43.77;14.27;;;;;3.50;96369.00;;;;8385104;28;20730;-69
2021/12/11 15:43:35;;;;;;;44.50;14.03;;;;;3.50;96367.00;;;;8386949;28;20583;-69
2021/12/11 15:47:43;;;;;;;39.57;13.47;;;;;3.50;96377.00;;;;8388620;28;20246;-70
2021/12/11 15:51:47;;;;;;;39.87;13.13;;;;;3.50;96387.00;;;;8384619;28;20322;-67
2021/12/11 15:55:52;;;;;;;31.07;12.27;;;;;3.50;96397.00;;;;8391270;28;20232;-70
2021/12/11 15:59:55;;;;;;;36.77;13.83;;;;;3.50;96395.00;;;;8388356;28;20712;-70
2021/12/11 16:04:03;;;;;;;40.03;13.90;;;;;3.50;96403.00;;;;8380705;28;20264;-70
2021/12/11 16:08:09;;;;;;;42.33;12.80;;;;;3.50;96414.00;;;;8396301;28;20576;-71
2021/12/11 16:12:16;;;;;;;33.37;13.60;;;;;3.50;96416.00;;;;8394271;28;20250;-71
2021/12/11 16:16:36;;;;;;;41.07;14.27;;;;;3.50;96429.00;;;;8387016;28;20279;-71
2021/12/11 16:20:46;;;;;;;40.43;12.47;;;;;3.50;96432.00;;;;8384079;28;21885;-72
2021/12/11 16:24:52;;;;;;;42.70;13.77;;;;;3.50;96442.00;;;;8394696;28;20766;-71
2021/12/11 16:28:55;;;;;;;45.77;13.83;;;;;3.60;96450.00;;;;8414772;28;20647;-72
2021/12/11 16:32:59;;;;;;;41.27;14.20;;;;;3.60;96459.00;;;;8413390;28;20333;-72
2021/12/11 16:37:08;;;;;;;42.83;14.23;;;;;3.60;96456.00;;;;8390174;28;20228;-71
2021/12/11 16:41:40;;;;;;;34.13;13.10;;;;;3.60;96476.00;;;;8389630;28;20220;-70
2021/12/11 16:45:47;;;;;;;39.30;13.23;;;;;3.60;96484.00;;;;8379054;28;20730;-71
2021/12/11 16:49:53;;;;;;;47.80;17.27;;;;;3.50;96487.00;;;;8424632;28;20230;-71
2021/12/11 16:53:58;;;;;;;40.43;12.63;;;;;3.50;96493.00;;;;8423378;28;20242;-70
2021/12/11 16:58:03;;;;;;;30.03;12.17;;;;;3.50;96500.00;;;;8391970;28;20242;-69
2021/12/11 17:02:10;;;;;;;47.97;13.10;;;;;3.50;96518.00;;;;8414965;28;20260;-69
2021/12/11 17:06:17;;;;;;;34.07;12.10;;;;;3.50;96514.00;;;;8414757;28;20229;-69
2021/12/11 17:10:26;;;;;;;35.30;11.87;;;;;3.50;96524.00;;;;8405628;28;20554;-69
2021/12/11 17:14:29;;;;;;;29.97;12.17;;;;;3.50;96529.00;;;;8393696;28;20257;-70
2021/12/11 17:18:36;;;;;;;37.70;12.17;;;;;3.40;96538.00;;;;8393650;28;20299;-70
2021/12/11 17:22:42;;;;;;;28.50;11.97;;;;;3.40;96546.00;;;;8416689;28;20224;-72
2021/12/11 17:26:49;;;;;;;26.70;10.20;;;;;3.40;96550.00;;;;8410555;28;21625;-71
2021/12/11 17:30:55;;;;;;;18.53;8.77;;;;;3.40;96551.00;;;;8411982;28;20316;-71
2021/12/11 17:34:59;;;;;;;18.67;8.03;;;;;3.30;96571.00;;;;8416218;28;20283;-71
2021/12/11 17:39:04;;;;;;;18.17;7.97;;;;;3.30;96570.00;;;;8371369;28;20222;-72
2021/12/11 17:43:09;;;;;;;18.60;8.90;;;;;3.30;96577.00;;;;8385445;28;20252;-72
2021/12/11 17:47:15;;;;;;;27.67;10.27;;;;;3.30;96576.00;;;;8422318;28;20232;-72
2021/12/11 17:51:20;;;;;;;30.17;10.73;;;;;3.30;96588.00;;;;8378881;28;20223;-72
2021/12/11 17:55:27;;;;;;;25.80;10.00;;;;;3.30;96597.00;;;;8403079;28;20317;-74
2021/12/11 17:59:33;;;;;;;26.57;9.93;;;;;3.30;96584.00;;;;8373559;28;20226;-71
2021/12/11 18:03:38;;;;;;;21.93;9.67;;;;;3.30;96599.00;;;;8369117;28;20847;-71
2021/12/11 18:07:47;;;;;;;32.80;10.97;;;;;3.30;96608.00;;;;8375852;28;20226;-71
2021/12/11 18:11:57;;;;;;;27.50;10.47;;;;;3.30;96607.00;;;;8404747;28;20310;-72
2021/12/11 18:16:06;;;;;;;23.70;9.97;;;;;3.40;96615.00;;;;8394503;28;20244;-73
2021/12/11 18:20:18;;;;;;;27.50;11.17;;;;;3.40;96620.00;;;;8390171;28;20255;-72
2021/12/11 18:24:23;;;;;;;35.63;12.50;;;;;3.30;96623.00;;;;8384793;28;20280;-71
2021/12/11 18:28:28;;;;;;;26.40;10.67;;;;;3.30;96624.00;;;;8384297;28;20625;-72
2021/12/11 18:32:35;;;;;;;33.27;12.53;;;;;3.30;96636.00;;;;8379069;28;20237;-71
2021/12/11 18:36:42;;;;;;;39.00;14.83;;;;;3.30;96641.00;;;;8382830;28;20268;-71
2021/12/11 18:40:49;;;;;;;48.70;23.60;;;;;3.30;96642.00;;;;8387774;28;20241;-72
2021/12/11 18:44:59;;;;;;;33.13;10.70;;;;;3.30;96643.00;;;;8374070;28;20226;-71
2021/12/11 18:49:05;;;;;;;29.57;12.10;;;;;3.20;96643.00;;;;8379489;28;20252;-71
2021/12/11 18:53:10;;;;;;;40.87;16.00;;;;;3.20;96657.00;;;;8374683;28;20237;-72
2021/12/11 18:57:17;;;;;;;35.67;12.83;;;;;3.20;96657.00;;;;8382064;28;20253;-73
2021/12/11 19:01:27;;;;;;;39.80;14.80;;;;;3.30;96666.00;;;;8413865;28;20230;-71
2021/12/11 19:05:37;;;;;;;33.80;12.07;;;;;3.30;96657.00;;;;8411926;28;20755;-72
2021/12/11 19:09:40;;;;;;;24.90;12.47;;;;;3.30;96666.00;;;;8422925;28;20275;-71
2021/12/11 19:13:44;;;;;;;32.40;14.00;;;;;3.30;96665.00;;;;8389390;28;20228;-71
2021/12/11 19:17:48;;;;;;;26.63;11.83;;;;;3.30;96664.00;;;;8384138;28;20249;-70
2021/12/11 19:21:59;;;;;;;25.40;13.03;;;;;3.40;96660.00;;;;8382541;28;20316;-71
2021/12/11 19:26:04;;;;;;;26.00;11.33;;;;;3.40;96666.00;;;;8387490;28;20411;-71
2021/12/11 19:30:12;;;;;;;22.80;10.07;;;;;3.40;96666.00;;;;8391986;28;20253;-70
2021/12/11 19:34:17;;;;;;;24.87;10.53;;;;;3.30;96673.00;;;;8382958;28;20222;-71
2021/12/11 19:38:24;;;;;;;24.03;11.80;;;;;3.20;96680.00;;;;8388305;28;20451;-71
2021/12/11 19:42:29;;;;;;;25.70;10.53;;;;;3.00;96697.00;;;;8380879;28;20307;-70
2021/12/11 19:46:33;;;;;;;22.33;9.67;;;;;2.90;96697.00;;;;8402206;28;20217;-71
2021/12/11 19:50:39;;;;;;;21.87;9.53;;;;;2.80;96710.00;;;;8393853;28;20263;-72
2021/12/11 19:54:49;;;;;;;24.73;8.90;;;;;2.70;96712.00;;;;8387768;28;20228;-71
2021/12/11 19:58:56;;;;;;;19.80;10.13;;;;;2.80;96707.00;;;;8382538;28;20253;-73
2021/12/11 20:03:02;;;;;;;21.97;9.53;;;;;2.80;96721.00;;;;8391673;28;20257;-72
2021/12/11 20:07:08;;;;;;;17.00;9.00;;;;;2.90;96725.00;;;;8384719;28;20226;-70
2021/12/11 20:11:18;;;;;;;23.60;9.90;;;;;2.90;96731.00;;;;8398534;28;20550;-72
2021/12/11 20:15:22;;;;;;;18.00;8.77;;;;;3.00;96743.00;;;;8383802;28;20261;-71
2021/12/11 20:19:31;;;;;;;17.60;8.20;;;;;3.00;96762.00;;;;8386779;28;20746;-72
2021/12/11 20:23:35;;;;;;;18.73;9.43;;;;;3.00;96757.00;;;;8422387;28;20241;-71
2021/12/11 20:27:41;;;;;;;22.33;9.13;;;;;3.00;96753.00;;;;8381937;28;20578;-71
2021/12/11 20:31:48;;;;;;;22.00;9.10;;;;;2.90;96761.00;;;;8401175;28;20257;-72
2021/12/11 20:35:53;;;;;;;16.73;7.87;;;;;2.70;96758.00;;;;8389169;28;20314;-71
2021/12/11 20:39:57;;;;;;;23.67;9.10;;;;;2.50;96765.00;;;;8385385;28;20313;-73